Time;durP1;ratioP1;P1;durP2;ratioP2;P2;SDS_P1;SDS_P2;PMS_P1;PMS_P2;Temp;Humidity;BMP_temperature;BMP_pressure;BME280_temperature;BME280_humidity;BME280_pressure;Samples;Min_cycle;Max_cycle;Signal;HPM_P1;HPM_P2
2023/07/24 00:00:17;;;;;;;17.13;14.90;;;;;;;;;;4912158;29;20533;-61
2023/07/24 00:02:43;;;;;;;16.97;14.63;;;;;;;;;;4912730;29;20048;-61
2023/07/24 00:05:10;;;;;;;16.60;14.87;;;;;;;;;;4913336;29;20536;-61
2023/07/24 00:07:36;;;;;;;16.30;14.30;;;;;;;;;;4914259;29;20063;-61
2023/07/24 00:10:02;;;;;;;16.87;15.03;;;;;;;;;;4913569;29;20410;-60
2023/07/24 00:12:28;;;;;;;17.23;15.40;;;;;;;;;;4913777;29;20051;-61
2023/07/24 00:14:54;;;;;;;16.63;14.83;;;;;;;;;;4913644;29;20406;-61
2023/07/24 00:17:20;;;;;;;17.17;15.00;;;;;;;;;;4913680;29;20044;-61
2023/07/24 00:19:46;;;;;;;18.07;16.27;;;;;;;;;;4913013;29;20782;-61
2023/07/24 00:22:12;;;;;;;18.87;15.93;;;;;;;;;;4913059;29;20052;-61
2023/07/24 00:24:38;;;;;;;17.73;15.83;;;;;;;;;;4913766;29;20151;-61
2023/07/24 00:27:04;;;;;;;18.00;16.07;;;;;;;;;;4912982;29;20051;-61
2023/07/24 00:29:30;;;;;;;19.07;16.10;;;;;;;;;;4912807;29;20051;-61
2023/07/24 00:31:56;;;;;;;17.10;15.30;;;;;;;;;;4913433;29;20044;-62
2023/07/24 00:34:22;;;;;;;17.70;15.90;;;;;;;;;;4913265;29;20063;-61
2023/07/24 00:36:48;;;;;;;19.73;16.33;;;;;;;;;;4912761;29;20529;-61
2023/07/24 00:39:17;;;;;;;19.10;16.10;;;;;;;;;;4913445;29;20079;-61
2023/07/24 00:41:43;;;;;;;19.70;16.47;;;;;;;;;;4913478;29;20184;-61
2023/07/24 00:44:09;;;;;;;20.03;16.70;;;;;;;;;;4912824;29;20498;-61
2023/07/24 00:46:35;;;;;;;21.13;17.20;;;;;;;;;;4913413;29;20054;-61
2023/07/24 00:49:02;;;;;;;22.37;17.53;;;;;;;;;;4912549;29;20044;-61
2023/07/24 00:51:28;;;;;;;19.93;17.37;;;;;;;;;;4912797;29;20048;-61
2023/07/24 00:53:55;;;;;;;19.87;15.63;;;;;;;;;;4912854;29;20044;-61
2023/07/24 00:56:22;;;;;;;19.07;16.07;;;;;;;;;;4912792;29;20123;-61
2023/07/24 00:58:48;;;;;;;17.63;15.43;;;;;;;;;;4912308;29;20051;-61
2023/07/24 01:01:15;;;;;;;20.87;17.07;;;;;;;;;;4911785;29;20444;-61
2023/07/24 01:03:43;;;;;;;18.83;16.60;;;;;;;;;;4911279;29;20074;-61
2023/07/24 01:06:09;;;;;;;18.87;16.07;;;;;;;;;;4912204;29;20112;-61
2023/07/24 01:08:35;;;;;;;18.23;15.63;;;;;;;;;;4911658;29;20044;-61
2023/07/24 01:11:06;;;;;;;20.17;15.37;;;;;;;;;;4911157;29;20048;-61
2023/07/24 01:13:37;;;;;;;18.07;15.67;;;;;;;;;;4900992;29;20050;-61
2023/07/24 01:16:16;;;;;;;18.03;15.60;;;;;;;;;;4893531;29;20052;-61
2023/07/24 01:18:43;;;;;;;15.83;13.83;;;;;;;;;;4893706;29;20048;-61
2023/07/24 01:21:10;;;;;;;18.20;14.20;;;;;;;;;;4893282;29;20052;-62
2023/07/24 01:23:52;;;;;;;18.47;14.67;;;;;;;;;;4899430;29;20044;-61
2023/07/24 01:26:18;;;;;;;16.37;13.73;;;;;;;;;;4912359;29;20411;-61
2023/07/24 01:28:45;;;;;;;17.47;13.50;;;;;;;;;;4912003;29;20308;-61
2023/07/24 01:31:11;;;;;;;20.10;13.97;;;;;;;;;;4911803;29;20135;-61
2023/07/24 01:33:37;;;;;;;14.67;13.03;;;;;;;;;;4912264;29;20127;-62
2023/07/24 01:36:04;;;;;;;19.13;13.13;;;;;;;;;;4912109;29;20063;-62
2023/07/24 01:38:32;;;;;;;17.80;12.23;;;;;;;;;;4911637;29;20410;-61
2023/07/24 01:40:58;;;;;;;15.80;12.77;;;;;;;;;;4912595;29;20048;-61
2023/07/24 01:43:27;;;;;;;14.53;12.03;;;;;;;;;;4912407;29;20075;-61
2023/07/24 01:45:53;;;;;;;15.97;12.83;;;;;;;;;;4912743;29;20055;-61
2023/07/24 01:48:19;;;;;;;19.17;13.07;;;;;;;;;;4912220;29;20494;-61
2023/07/24 01:50:45;;;;;;;17.10;12.43;;;;;;;;;;4910212;29;20048;-61
2023/07/24 01:53:11;;;;;;;14.57;12.83;;;;;;;;;;4912182;29;20048;-61
2023/07/24 01:55:37;;;;;;;16.47;12.80;;;;;;;;;;4912225;29;20054;-61
2023/07/24 01:58:02;;;;;;;15.10;12.50;;;;;;;;;;4911741;29;20518;-61
2023/07/24 02:00:29;;;;;;;17.67;12.87;;;;;;;;;;4911415;29;20048;-61
2023/07/24 02:02:55;;;;;;;18.20;13.63;;;;;;;;;;4911552;29;20410;-62
2023/07/24 02:05:22;;;;;;;18.37;13.53;;;;;;;;;;4911757;29;20135;-61
2023/07/24 02:07:48;;;;;;;20.63;14.30;;;;;;;;;;4909680;29;20127;-61
2023/07/24 02:10:14;;;;;;;17.13;13.20;;;;;;;;;;4911581;29;20135;-61
2023/07/24 02:12:40;;;;;;;16.30;13.23;;;;;;;;;;4912081;29;20040;-61
2023/07/24 02:15:06;;;;;;;20.97;13.60;;;;;;;;;;4911775;29;20562;-61
2023/07/24 02:17:32;;;;;;;20.13;13.57;;;;;;;;;;4913815;29;20521;-61
2023/07/24 02:19:58;;;;;;;16.13;12.03;;;;;;;;;;4915442;29;20104;-61
2023/07/24 02:22:24;;;;;;;17.77;12.63;;;;;;;;;;4915449;29;20113;-62
2023/07/24 02:24:50;;;;;;;18.93;13.33;;;;;;;;;;4915497;29;20063;-61
2023/07/24 02:27:27;;;;;;;17.60;12.90;;;;;;;;;;4915658;29;20040;-61
2023/07/24 02:29:54;;;;;;;18.07;12.73;;;;;;;;;;4914578;29;20044;-61
2023/07/24 02:32:22;;;;;;;17.07;12.80;;;;;;;;;;4915810;29;20055;-61
2023/07/24 02:34:49;;;;;;;14.47;11.33;;;;;;;;;;4915062;29;20048;-61
2023/07/24 02:37:14;;;;;;;16.47;11.27;;;;;;;;;;4914663;29;20055;-61
2023/07/24 02:39:40;;;;;;;15.90;11.63;;;;;;;;;;4915156;29;20040;-61
2023/07/24 02:42:06;;;;;;;15.43;11.70;;;;;;;;;;4914319;29;20051;-62
2023/07/24 02:44:34;;;;;;;14.83;11.80;;;;;;;;;;4914720;29;20056;-62
2023/07/24 02:47:00;;;;;;;13.07;10.80;;;;;;;;;;4915260;29;20092;-62
2023/07/24 02:49:26;;;;;;;14.57;10.93;;;;;;;;;;4914658;29;20048;-61
2023/07/24 02:51:51;;;;;;;12.33;10.70;;;;;;;;;;4914702;29;20048;-62
2023/07/24 02:54:17;;;;;;;13.53;11.17;;;;;;;;;;4915158;29;20391;-62
2023/07/24 02:56:43;;;;;;;14.73;10.30;;;;;;;;;;4914652;29;20099;-61
2023/07/24 02:59:09;;;;;;;13.20;10.77;;;;;;;;;;4913412;29;20048;-62
2023/07/24 03:01:36;;;;;;;17.40;10.77;;;;;;;;;;4913073;29;20167;-62
2023/07/24 03:04:02;;;;;;;11.80;10.27;;;;;;;;;;4915019;29;20439;-62
2023/07/24 03:06:28;;;;;;;13.97;10.47;;;;;;;;;;4914810;29;20052;-62
2023/07/24 03:08:54;;;;;;;13.17;10.13;;;;;;;;;;4914260;29;20059;-62
2023/07/24 03:11:20;;;;;;;11.37;9.83;;;;;;;;;;4914549;29;20059;-61
2023/07/24 03:13:46;;;;;;;13.30;10.07;;;;;;;;;;4914537;29;20502;-61
2023/07/24 03:16:12;;;;;;;14.00;10.67;;;;;;;;;;4914738;29;20048;-62
2023/07/24 03:18:38;;;;;;;13.53;10.50;;;;;;;;;;4914155;29;20060;-62
2023/07/24 03:21:04;;;;;;;16.40;10.43;;;;;;;;;;4914347;29;20060;-61
2023/07/24 03:23:30;;;;;;;12.00;10.10;;;;;;;;;;4914445;29;20049;-61
2023/07/24 03:25:56;;;;;;;14.77;10.30;;;;;;;;;;4914597;29;20558;-61
2023/07/24 03:28:22;;;;;;;16.17;10.43;;;;;;;;;;4912708;29;20154;-61
2023/07/24 03:30:48;;;;;;;12.37;11.07;;;;;;;;;;4913146;29;20502;-61
2023/07/24 03:33:14;;;;;;;12.97;10.30;;;;;;;;;;4914534;29;20047;-61
2023/07/24 03:35:40;;;;;;;14.87;10.73;;;;;;;;;;4914467;29;20055;-61
2023/07/24 03:38:06;;;;;;;14.80;11.80;;;;;;;;;;4914034;29;20056;-61
2023/07/24 03:40:32;;;;;;;14.70;10.87;;;;;;;;;;4913973;29;20478;-61
2023/07/24 03:42:58;;;;;;;17.30;12.17;;;;;;;;;;4914359;29;20056;-61
2023/07/24 03:45:24;;;;;;;13.43;11.33;;;;;;;;;;4913629;29;20092;-61
2023/07/24 03:47:50;;;;;;;16.23;12.40;;;;;;;;;;4913634;29;20048;-62
2023/07/24 03:50:16;;;;;;;14.93;11.73;;;;;;;;;;4913972;29;20462;-61
2023/07/24 03:52:42;;;;;;;15.73;12.17;;;;;;;;;;4912638;29;20048;-61
2023/07/24 03:55:10;;;;;;;14.10;12.57;;;;;;;;;;4913269;29;20040;-62
2023/07/24 03:57:36;;;;;;;14.77;12.47;;;;;;;;;;4913880;29;20052;-61
2023/07/24 04:00:02;;;;;;;14.17;12.00;;;;;;;;;;4912792;29;20047;-62
2023/07/24 04:02:28;;;;;;;15.00;13.40;;;;;;;;;;4913636;29;20036;-61
2023/07/24 04:04:54;;;;;;;15.73;12.30;;;;;;;;;;4896227;29;20055;-61
2023/07/24 04:07:20;;;;;;;14.90;12.33;;;;;;;;;;4913687;29;20458;-61
2023/07/24 04:09:46;;;;;;;17.70;14.10;;;;;;;;;;4896659;29;20091;-61
2023/07/24 04:12:12;;;;;;;15.63;14.03;;;;;;;;;;4913494;29;20465;-61
2023/07/24 04:14:38;;;;;;;16.23;12.60;;;;;;;;;;4913481;29;20091;-61
2023/07/24 04:17:04;;;;;;;14.50;12.80;;;;;;;;;;4912652;29;20099;-62
2023/07/24 04:19:30;;;;;;;15.43;13.37;;;;;;;;;;4913294;29;20046;-61
2023/07/24 04:21:56;;;;;;;15.37;13.17;;;;;;;;;;4913145;29;20482;-61
2023/07/24 04:24:22;;;;;;;14.70;13.20;;;;;;;;;;4913452;29;20052;-61
2023/07/24 04:26:48;;;;;;;13.43;11.83;;;;;;;;;;4912242;29;20044;-62
2023/07/24 04:29:14;;;;;;;14.97;12.37;;;;;;;;;;4912648;29;20483;-61
2023/07/24 04:31:40;;;;;;;14.70;12.93;;;;;;;;;;4912894;29;20091;-61
2023/07/24 04:34:06;;;;;;;14.43;12.17;;;;;;;;;;4912768;29;20585;-61
2023/07/24 04:36:32;;;;;;;15.43;13.50;;;;;;;;;;4913139;29;20101;-62
2023/07/24 04:38:58;;;;;;;14.73;13.23;;;;;;;;;;4912546;29;20037;-62
2023/07/24 04:41:24;;;;;;;13.57;12.13;;;;;;;;;;4911576;29;20127;-61
2023/07/24 04:43:50;;;;;;;14.27;12.20;;;;;;;;;;4912382;29;20048;-61
2023/07/24 04:46:16;;;;;;;14.63;12.87;;;;;;;;;;4909581;29;20515;-62
2023/07/24 04:48:42;;;;;;;13.90;12.40;;;;;;;;;;4911331;29;20048;-62
2023/07/24 04:51:08;;;;;;;15.60;13.90;;;;;;;;;;4912932;29;20773;-62
2023/07/24 04:53:34;;;;;;;15.17;12.83;;;;;;;;;;4912771;29;20048;-62
2023/07/24 04:56:00;;;;;;;14.87;13.33;;;;;;;;;;4912803;29;20103;-62
2023/07/24 04:58:26;;;;;;;15.63;12.83;;;;;;;;;;4912423;29;20091;-61
2023/07/24 05:00:52;;;;;;;17.80;12.50;;;;;;;;;;4912600;29;20055;-62
2023/07/24 05:03:18;;;;;;;13.37;11.80;;;;;;;;;;4912755;29;20045;-62
2023/07/24 05:05:44;;;;;;;16.97;12.80;;;;;;;;;;4912331;29;20052;-62
2023/07/24 05:08:10;;;;;;;15.83;13.10;;;;;;;;;;4912465;29;20106;-61
2023/07/24 05:10:36;;;;;;;15.13;12.37;;;;;;;;;;4912592;29;20418;-62
2023/07/24 05:13:03;;;;;;;17.17;13.53;;;;;;;;;;4912462;29;20056;-62
2023/07/24 05:15:29;;;;;;;14.20;12.27;;;;;;;;;;4912087;29;20471;-62
2023/07/24 05:17:55;;;;;;;15.07;13.03;;;;;;;;;;4912397;29;20056;-62
2023/07/24 05:20:21;;;;;;;13.90;12.20;;;;;;;;;;4913182;29;20063;-62
2023/07/24 05:22:47;;;;;;;14.43;12.80;;;;;;;;;;4911768;29;20499;-61
2023/07/24 05:25:13;;;;;;;17.10;12.87;;;;;;;;;;4919085;29;20048;-62
2023/07/24 05:27:39;;;;;;;19.87;12.33;;;;;;;;;;4912408;29;20142;-62
2023/07/24 05:30:06;;;;;;;15.90;12.83;;;;;;;;;;4905694;29;20697;-62
2023/07/24 05:32:31;;;;;;;14.33;11.40;;;;;;;;;;4911606;29;20513;-62
2023/07/24 05:34:57;;;;;;;14.97;11.70;;;;;;;;;;4911627;29;20040;-62
2023/07/24 05:37:23;;;;;;;11.87;10.63;;;;;;;;;;4911674;29;20151;-61
2023/07/24 05:39:49;;;;;;;12.63;11.33;;;;;;;;;;4911349;29;20043;-62
2023/07/24 05:42:15;;;;;;;12.43;11.13;;;;;;;;;;4909456;29;20048;-62
2023/07/24 05:44:41;;;;;;;13.30;11.17;;;;;;;;;;4911399;29;20040;-62
2023/07/24 05:47:07;;;;;;;12.27;11.07;;;;;;;;;;4911586;29;20509;-62
2023/07/24 05:49:33;;;;;;;13.77;11.73;;;;;;;;;;4912071;29;20078;-62
2023/07/24 05:51:59;;;;;;;11.70;10.60;;;;;;;;;;4913644;29;20044;-62
2023/07/24 05:54:25;;;;;;;12.80;11.00;;;;;;;;;;4915634;29;20486;-62
2023/07/24 05:56:52;;;;;;;12.30;10.60;;;;;;;;;;4915006;29;20084;-62
2023/07/24 05:59:18;;;;;;;14.77;11.27;;;;;;;;;;4915703;29;20058;-62
2023/07/24 06:01:44;;;;;;;12.33;10.57;;;;;;;;;;4915459;29;20040;-62
2023/07/24 06:04:10;;;;;;;13.60;11.53;;;;;;;;;;4915272;29;20048;-62
2023/07/24 06:06:36;;;;;;;12.37;10.50;;;;;;;;;;4914904;29;20406;-62
2023/07/24 06:09:03;;;;;;;15.10;11.70;;;;;;;;;;4915436;29;20044;-62
2023/07/24 06:11:29;;;;;;;13.40;11.67;;;;;;;;;;4915018;29;20051;-62
2023/07/24 06:13:55;;;;;;;14.27;11.13;;;;;;;;;;4915244;29;20134;-62
2023/07/24 06:16:21;;;;;;;11.70;10.50;;;;;;;;;;4915640;29;20048;-62
2023/07/24 06:18:47;;;;;;;12.70;11.10;;;;;;;;;;4915295;29;20051;-62
2023/07/24 06:21:13;;;;;;;11.47;10.33;;;;;;;;;;4914549;29;20525;-62
2023/07/24 06:23:39;;;;;;;11.60;10.40;;;;;;;;;;4915349;29;20096;-62
2023/07/24 06:26:05;;;;;;;14.97;10.67;;;;;;;;;;4914995;29;20141;-62
2023/07/24 06:28:32;;;;;;;10.13;9.03;;;;;;;;;;4915171;29;20052;-62
2023/07/24 06:30:58;;;;;;;10.40;9.00;;;;;;;;;;4915225;29;20052;-62
2023/07/24 06:33:24;;;;;;;10.13;9.13;;;;;;;;;;4914981;29;20074;-62
2023/07/24 06:35:50;;;;;;;11.50;9.57;;;;;;;;;;4913209;29;20055;-62
2023/07/24 06:38:17;;;;;;;12.60;9.37;;;;;;;;;;4917457;29;20052;-62
2023/07/24 06:40:43;;;;;;;14.67;8.63;;;;;;;;;;4921150;29;20052;-62
2023/07/24 06:43:09;;;;;;;10.97;9.77;;;;;;;;;;4913254;29;20047;-62
2023/07/24 06:45:34;;;;;;;10.57;9.47;;;;;;;;;;4915102;29;20055;-62
2023/07/24 06:48:00;;;;;;;10.70;9.03;;;;;;;;;;4898200;29;20266;-62
2023/07/24 06:50:26;;;;;;;12.53;7.80;;;;;;;;;;4914400;29;20048;-62
2023/07/24 06:52:53;;;;;;;11.13;9.07;;;;;;;;;;4914532;29;20491;-62
2023/07/24 06:55:19;;;;;;;14.80;8.80;;;;;;;;;;4914750;29;20044;-62
2023/07/24 06:57:45;;;;;;;12.77;9.77;;;;;;;;;;4915053;29;20084;-62
2023/07/24 07:00:12;;;;;;;12.87;8.80;;;;;;;;;;4921858;29;20138;-63
2023/07/24 07:02:38;;;;;;;14.77;9.10;;;;;;;;;;4913425;29;20055;-63
2023/07/24 07:05:05;;;;;;;11.47;8.63;;;;;;;;;;4920649;29;20039;-63
2023/07/24 07:07:31;;;;;;;11.07;8.57;;;;;;;;;;4914571;29;20080;-62
2023/07/24 07:09:56;;;;;;;11.37;8.87;;;;;;;;;;4915043;29;20131;-62
2023/07/24 07:12:22;;;;;;;10.87;7.70;;;;;;;;;;4921732;29;20163;-63
2023/07/24 07:14:48;;;;;;;10.13;7.80;;;;;;;;;;4912683;29;20308;-63
2023/07/24 07:17:14;;;;;;;17.67;8.90;;;;;;;;;;4913012;29;20168;-62
2023/07/24 07:19:40;;;;;;;10.23;8.03;;;;;;;;;;4913140;29;20130;-62
2023/07/24 07:22:06;;;;;;;14.10;8.50;;;;;;;;;;4922894;29;20060;-63
2023/07/24 07:24:32;;;;;;;13.77;8.30;;;;;;;;;;4921817;29;20083;-63
2023/07/24 07:26:58;;;;;;;12.13;7.90;;;;;;;;;;4914879;29;20548;-63
2023/07/24 07:29:24;;;;;;;12.37;8.33;;;;;;;;;;4913947;29;20048;-63
2023/07/24 07:31:50;;;;;;;10.17;7.70;;;;;;;;;;4913703;29;20071;-63
2023/07/24 07:34:16;;;;;;;11.00;7.70;;;;;;;;;;4913729;29;20044;-62
2023/07/24 07:36:42;;;;;;;12.80;8.77;;;;;;;;;;4913559;29;20054;-63
2023/07/24 07:39:09;;;;;;;14.87;8.30;;;;;;;;;;4895456;29;20877;-62
2023/07/24 07:41:35;;;;;;;10.10;6.60;;;;;;;;;;4910750;29;20177;-61
2023/07/24 07:44:01;;;;;;;10.73;7.83;;;;;;;;;;4914299;29;20531;-61
2023/07/24 07:46:27;;;;;;;15.20;7.97;;;;;;;;;;4916131;29;20086;-61
2023/07/24 07:48:53;;;;;;;11.10;6.73;;;;;;;;;;4923124;29;20051;-61
2023/07/24 07:51:19;;;;;;;11.20;7.33;;;;;;;;;;4927526;29;20052;-61
2023/07/24 07:53:45;;;;;;;13.23;7.27;;;;;;;;;;4916838;29;20150;-61
2023/07/24 07:56:11;;;;;;;12.63;7.13;;;;;;;;;;4920913;29;20063;-61
2023/07/24 07:58:37;;;;;;;16.37;7.37;;;;;;;;;;4914147;29;20044;-61
2023/07/24 08:01:06;;;;;;;9.80;7.13;;;;;;;;;;4912694;29;20082;-61
2023/07/24 08:03:33;;;;;;;12.50;7.13;;;;;;;;;;4912370;29;20044;-61
2023/07/24 08:05:59;;;;;;;15.47;7.60;;;;;;;;;;4912786;29;20052;-61
2023/07/24 08:08:25;;;;;;;14.50;7.90;;;;;;;;;;4913715;29;20135;-61
2023/07/24 08:10:50;;;;;;;10.53;7.47;;;;;;;;;;4932336;29;20399;-61
2023/07/24 08:13:16;;;;;;;11.90;7.73;;;;;;;;;;4918388;29;20075;-61
2023/07/24 08:15:42;;;;;;;9.10;6.77;;;;;;;;;;4912801;29;20048;-62
2023/07/24 08:18:08;;;;;;;10.83;6.67;;;;;;;;;;4915040;29;20084;-62
2023/07/24 08:20:37;;;;;;;10.17;6.93;;;;;;;;;;4920400;29;20048;-61
2023/07/24 08:23:03;;;;;;;8.83;6.17;;;;;;;;;;4912177;29;20052;-61
2023/07/24 08:25:29;;;;;;;9.90;7.53;;;;;;;;;;4912598;29;20048;-61
2023/07/24 08:27:55;;;;;;;11.40;6.77;;;;;;;;;;4920162;29;20094;-62
2023/07/24 08:30:21;;;;;;;10.90;7.30;;;;;;;;;;4930453;29;20048;-62
2023/07/24 08:32:50;;;;;;;10.03;6.83;;;;;;;;;;4923828;29;20498;-62
2023/07/24 08:35:16;;;;;;;13.30;7.10;;;;;;;;;;4914737;29;20056;-62
2023/07/24 08:37:45;;;;;;;12.20;6.87;;;;;;;;;;4932218;29;20047;-61
2023/07/24 08:40:11;;;;;;;10.13;6.87;;;;;;;;;;4931333;29;20056;-61
2023/07/24 08:42:40;;;;;;;9.47;6.33;;;;;;;;;;4920053;29;20063;-62
2023/07/24 08:45:12;;;;;;;8.43;6.17;;;;;;;;;;4912075;29;20131;-62
2023/07/24 08:47:38;;;;;;;9.80;5.95;;;;;;;;;;4912268;29;20052;-62
2023/07/24 08:50:04;;;;;;;12.10;7.00;;;;;;;;;;4912007;29;20043;-62
2023/07/24 08:52:31;;;;;;;9.00;6.30;;;;;;;;;;4911862;29;20048;-61
2023/07/24 08:54:59;;;;;;;10.73;6.63;;;;;;;;;;4911262;29;20336;-61
2023/07/24 08:57:25;;;;;;;14.60;5.90;;;;;;;;;;4910568;29;20059;-62
2023/07/24 08:59:50;;;;;;;12.27;6.50;;;;;;;;;;4909990;29;20763;-61
2023/07/24 09:02:16;;;;;;;11.85;7.05;;;;;;;;;;4893588;29;20067;-61
2023/07/24 09:04:42;;;;;;;8.27;6.05;;;;;;;;;;4909091;29;20087;-61
2023/07/24 09:07:09;;;;;;;11.50;6.38;;;;;;;;;;4911207;29;20096;-61
2023/07/24 09:09:35;;;;;;;11.45;6.18;;;;;;;;;;4911601;29;20134;-61
2023/07/24 09:12:01;;;;;;;13.35;7.00;;;;;;;;;;4908940;29;20047;-62
2023/07/24 09:14:30;;;;;;;12.63;6.50;;;;;;;;;;4910874;29;20048;-61
2023/07/24 09:17:03;;;;;;;14.48;6.22;;;;;;;;;;4911470;29;20067;-61
2023/07/24 09:19:29;;;;;;;13.07;6.82;;;;;;;;;;4912181;29;20055;-61
2023/07/24 09:21:55;;;;;;;9.93;7.03;;;;;;;;;;4910818;29;20071;-61
2023/07/24 09:24:21;;;;;;;10.50;5.80;;;;;;;;;;4912109;29;20044;-61
2023/07/24 09:26:48;;;;;;;11.52;6.07;;;;;;;;;;4911219;29;20499;-61
2023/07/24 09:29:14;;;;;;;10.37;7.20;;;;;;;;;;4911363;29;20572;-61
2023/07/24 09:31:40;;;;;;;11.52;6.63;;;;;;;;;;4912993;29;20040;-61
2023/07/24 09:34:14;;;;;;;10.48;6.75;;;;;;;;;;4911343;29;20055;-61
2023/07/24 09:36:40;;;;;;;11.75;6.50;;;;;;;;;;4911865;29;20321;-61
2023/07/24 09:39:10;;;;;;;17.70;6.87;;;;;;;;;;4911961;29;20490;-62
2023/07/24 09:41:36;;;;;;;9.33;5.83;;;;;;;;;;4918474;29;20083;-62
2023/07/24 09:44:02;;;;;;;12.00;6.35;;;;;;;;;;4911855;29;20072;-62
2023/07/24 09:46:29;;;;;;;10.73;5.90;;;;;;;;;;4911005;29;20107;-61
2023/07/24 09:48:57;;;;;;;10.00;6.03;;;;;;;;;;4910315;29;20045;-62
2023/07/24 09:51:23;;;;;;;11.33;6.47;;;;;;;;;;4911975;29;20273;-62
2023/07/24 09:54:07;;;;;;;16.63;6.37;;;;;;;;;;4911123;29;20047;-62
2023/07/24 09:56:33;;;;;;;9.33;5.57;;;;;;;;;;4918040;29;20405;-63
2023/07/24 09:59:00;;;;;;;11.43;6.13;;;;;;;;;;4913577;29;20321;-63
2023/07/24 10:01:26;;;;;;;12.07;5.50;;;;;;;;;;4910851;29;20411;-61
2023/07/24 10:03:53;;;;;;;9.70;5.00;;;;;;;;;;4911229;29;20083;-62
2023/07/24 10:06:19;;;;;;;9.90;5.38;;;;;;;;;;4911961;29;20052;-62
2023/07/24 10:08:45;;;;;;;11.88;5.30;;;;;;;;;;4909880;29;20060;-61
2023/07/24 10:11:12;;;;;;;8.43;4.53;;;;;;;;;;4911983;29;20079;-61
2023/07/24 10:13:38;;;;;;;11.43;4.70;;;;;;;;;;4911911;29;20104;-61
2023/07/24 10:16:06;;;;;;;10.38;5.28;;;;;;;;;;4912021;29;20411;-62
2023/07/24 10:18:33;;;;;;;8.95;4.85;;;;;;;;;;4910341;29;20054;-62
2023/07/24 10:21:02;;;;;;;8.77;5.00;;;;;;;;;;4910666;29;20064;-61
2023/07/24 10:23:28;;;;;;;7.82;4.72;;;;;;;;;;4911227;29;20052;-61
2023/07/24 10:25:54;;;;;;;7.30;4.45;;;;;;;;;;4910688;29;20052;-62
2023/07/24 10:28:20;;;;;;;9.30;4.80;;;;;;;;;;4910249;29;20051;-62
2023/07/24 10:30:55;;;;;;;8.57;4.88;;;;;;;;;;4910770;29;20044;-62
2023/07/24 10:33:21;;;;;;;7.40;4.88;;;;;;;;;;4911289;29;20056;-62
2023/07/24 10:35:48;;;;;;;8.40;4.75;;;;;;;;;;4910262;29;20502;-62
2023/07/24 10:38:15;;;;;;;7.47;4.88;;;;;;;;;;4913491;29;20046;-61
2023/07/24 10:40:42;;;;;;;10.27;5.43;;;;;;;;;;4913630;29;20096;-62
2023/07/24 10:43:10;;;;;;;7.57;5.05;;;;;;;;;;4914218;29;20195;-61
2023/07/24 10:45:52;;;;;;;7.82;4.57;;;;;;;;;;4914908;29;20052;-62
2023/07/24 10:48:18;;;;;;;7.18;4.93;;;;;;;;;;4914886;29;20084;-62
2023/07/24 10:50:45;;;;;;;10.98;5.18;;;;;;;;;;4914580;29;20059;-62
2023/07/24 10:53:12;;;;;;;7.88;4.70;;;;;;;;;;4914205;29;20063;-63
2023/07/24 10:55:38;;;;;;;7.47;4.50;;;;;;;;;;4914669;29;20228;-62
2023/07/24 10:58:04;;;;;;;7.28;4.40;;;;;;;;;;4914826;29;20111;-62
2023/07/24 11:00:30;;;;;;;10.73;4.65;;;;;;;;;;4914515;29;20056;-62
2023/07/24 11:02:56;;;;;;;7.45;4.70;;;;;;;;;;4914469;29;20094;-62
2023/07/24 11:05:22;;;;;;;8.60;4.78;;;;;;;;;;4913986;29;20083;-63
2023/07/24 11:07:48;;;;;;;9.60;4.78;;;;;;;;;;4914327;29;20632;-62
2023/07/24 11:10:18;;;;;;;10.65;4.38;;;;;;;;;;4914473;29;20044;-63
2023/07/24 11:12:44;;;;;;;7.28;4.90;;;;;;;;;;4914258;29;20054;-62
2023/07/24 11:15:11;;;;;;;8.13;5.30;;;;;;;;;;4914117;29;20064;-62
2023/07/24 11:17:40;;;;;;;6.45;3.88;;;;;;;;;;4913775;29;20139;-62
2023/07/24 11:20:13;;;;;;;8.73;4.95;;;;;;;;;;4913903;29;20075;-63
2023/07/24 11:22:43;;;;;;;8.38;4.82;;;;;;;;;;4913874;29;20083;-62
2023/07/24 11:25:10;;;;;;;10.52;4.60;;;;;;;;;;4913917;29;20130;-63
2023/07/24 11:27:43;;;;;;;7.93;4.82;;;;;;;;;;4914166;29;20052;-62
2023/07/24 11:30:10;;;;;;;11.60;5.45;;;;;;;;;;4913810;29;20045;-62
2023/07/24 11:32:38;;;;;;;8.65;5.20;;;;;;;;;;4913699;29;20051;-62
2023/07/24 11:35:05;;;;;;;10.25;4.80;;;;;;;;;;4913908;29;20052;-62
2023/07/24 11:37:31;;;;;;;7.78;4.88;;;;;;;;;;4913834;29;20080;-63
2023/07/24 11:39:57;;;;;;;7.53;4.75;;;;;;;;;;4913429;29;20520;-62
2023/07/24 11:42:25;;;;;;;9.88;5.07;;;;;;;;;;4913914;29;20044;-63
2023/07/24 11:44:51;;;;;;;9.20;4.72;;;;;;;;;;4913535;29;20044;-62
2023/07/24 11:47:17;;;;;;;7.95;4.40;;;;;;;;;;4913943;29;20044;-62
2023/07/24 11:49:48;;;;;;;9.05;4.82;;;;;;;;;;4913415;29;20048;-62
2023/07/24 11:52:14;;;;;;;8.05;4.30;;;;;;;;;;4913599;29;20052;-62
2023/07/24 11:54:40;;;;;;;9.43;4.80;;;;;;;;;;4913172;29;20281;-62
2023/07/24 11:57:16;;;;;;;8.73;5.20;;;;;;;;;;4913107;29;20574;-63
2023/07/24 11:59:42;;;;;;;9.50;4.47;;;;;;;;;;4913618;29;20052;-62
2023/07/24 12:02:11;;;;;;;8.90;5.03;;;;;;;;;;4913084;29;20124;-62
2023/07/24 12:04:38;;;;;;;10.00;4.82;;;;;;;;;;4913402;29;20147;-62
2023/07/24 12:07:08;;;;;;;11.23;5.05;;;;;;;;;;4913044;29;20063;-62
2023/07/24 12:09:34;;;;;;;7.78;5.18;;;;;;;;;;4913455;29;20502;-62
2023/07/24 12:12:00;;;;;;;9.25;4.60;;;;;;;;;;4913272;29;20048;-62
2023/07/24 12:14:26;;;;;;;8.85;4.40;;;;;;;;;;4912661;29;20107;-62
2023/07/24 12:17:09;;;;;;;7.82;4.38;;;;;;;;;;4912981;29;20054;-62
2023/07/24 12:19:36;;;;;;;6.25;3.92;;;;;;;;;;4913238;29;20050;-62
2023/07/24 12:22:04;;;;;;;10.57;4.28;;;;;;;;;;4912816;29;20060;-62
2023/07/24 12:24:30;;;;;;;7.70;4.85;;;;;;;;;;4912880;29;20138;-62
2023/07/24 12:26:55;;;;;;;14.65;5.95;;;;;;;;;;4913091;29;20127;-62
2023/07/24 12:29:21;;;;;;;6.25;3.90;;;;;;;;;;4912697;29;20061;-62
2023/07/24 12:31:47;;;;;;;7.03;4.07;;;;;;;;;;4912779;29;20087;-62
2023/07/24 12:34:13;;;;;;;7.32;4.53;;;;;;;;;;4912867;29;20054;-62
2023/07/24 12:36:39;;;;;;;8.10;4.35;;;;;;;;;;4912684;29;20138;-62
2023/07/24 12:39:05;;;;;;;9.27;5.10;;;;;;;;;;4912730;29;20051;-62
2023/07/24 12:41:31;;;;;;;8.98;5.07;;;;;;;;;;4913084;29;20433;-62
2023/07/24 12:43:57;;;;;;;6.28;4.72;;;;;;;;;;4912266;29;20044;-63
2023/07/24 12:46:23;;;;;;;9.18;4.40;;;;;;;;;;4912829;29;20076;-62
2023/07/24 12:48:49;;;;;;;7.75;5.47;;;;;;;;;;4912367;29;20048;-63
2023/07/24 12:51:15;;;;;;;8.00;5.00;;;;;;;;;;4912610;29;20051;-62
2023/07/24 12:53:41;;;;;;;9.88;5.15;;;;;;;;;;4912596;29;20067;-62
2023/07/24 12:56:07;;;;;;;13.52;5.53;;;;;;;;;;4911915;29;20441;-62
2023/07/24 12:58:33;;;;;;;8.85;4.80;;;;;;;;;;4912387;29;20145;-62
2023/07/24 13:00:59;;;;;;;7.95;4.97;;;;;;;;;;4911754;29;20135;-62
2023/07/24 13:03:25;;;;;;;11.43;5.60;;;;;;;;;;4912304;29;20055;-62
2023/07/24 13:05:51;;;;;;;8.80;5.68;;;;;;;;;;4912310;29;20051;-63
2023/07/24 13:08:21;;;;;;;9.27;5.30;;;;;;;;;;4912328;29;20051;-62
2023/07/24 13:10:47;;;;;;;9.57;5.25;;;;;;;;;;4911570;29;20089;-63
2023/07/24 13:13:13;;;;;;;9.75;5.55;;;;;;;;;;4912405;29;20135;-62
2023/07/24 13:15:39;;;;;;;6.57;4.38;;;;;;;;;;4912163;29;20044;-62
2023/07/24 13:18:05;;;;;;;7.50;4.60;;;;;;;;;;4910376;29;20410;-63
2023/07/24 13:20:31;;;;;;;12.87;5.37;;;;;;;;;;4910763;29;20154;-62
2023/07/24 13:22:57;;;;;;;15.83;6.17;;;;;;;;;;4910535;29;20191;-62
2023/07/24 13:25:23;;;;;;;18.50;6.83;;;;;;;;;;4911569;29;20526;-61
2023/07/24 13:27:50;;;;;;;33.83;9.47;;;;;;;;;;4911868;29;20047;-63
2023/07/24 13:30:17;;;;;;;32.57;9.20;;;;;;;;;;4911821;29;20139;-65
2023/07/24 13:32:43;;;;;;;37.17;10.97;;;;;;;;;;4912182;29;20063;-64
2023/07/24 13:35:09;;;;;;;14.80;9.63;;;;;;;;;;4911837;29;20414;-65
2023/07/24 13:37:35;;;;;;;13.03;8.60;;;;;;;;;;4911999;29;20044;-65
2023/07/24 13:40:01;;;;;;;15.73;9.77;;;;;;;;;;4894864;29;20048;-65
2023/07/24 13:42:27;;;;;;;18.37;12.57;;;;;;;;;;4912034;29;20056;-65
2023/07/24 13:44:53;;;;;;;20.60;12.77;;;;;;;;;;4911716;29;20044;-65
2023/07/24 13:47:21;;;;;;;20.90;13.20;;;;;;;;;;4911967;29;20044;-66
2023/07/24 13:49:47;;;;;;;14.83;11.10;;;;;;;;;;4911687;29;20059;-66
2023/07/24 13:52:13;;;;;;;34.00;18.23;;;;;;;;;;4911545;29;20040;-66
2023/07/24 13:54:39;;;;;;;34.00;18.53;;;;;;;;;;4911859;29;20169;-66
2023/07/24 13:57:08;;;;;;;21.47;14.27;;;;;;;;;;4911578;29;20107;-66
2023/07/24 13:59:34;;;;;;;24.33;16.13;;;;;;;;;;4911903;29;20067;-66
2023/07/24 14:02:00;;;;;;;28.33;18.20;;;;;;;;;;4911652;29;20056;-67
2023/07/24 14:04:26;;;;;;;17.80;13.30;;;;;;;;;;4911320;29;20088;-66
2023/07/24 14:06:52;;;;;;;17.83;12.17;;;;;;;;;;4911646;29;20048;-66
2023/07/24 14:09:18;;;;;;;15.37;11.93;;;;;;;;;;4911674;29;20044;-66
2023/07/24 14:11:44;;;;;;;16.20;11.17;;;;;;;;;;4911600;29;20048;-66
2023/07/24 14:14:11;;;;;;;12.33;9.80;;;;;;;;;;4915409;29;20491;-66
2023/07/24 14:16:37;;;;;;;13.07;9.53;;;;;;;;;;4915447;29;20514;-66
2023/07/24 14:19:03;;;;;;;10.30;9.00;;;;;;;;;;4914993;29;20044;-66
2023/07/24 14:21:29;;;;;;;10.40;7.80;;;;;;;;;;4914944;29;20436;-66